sensor_id;sensor_type;location;lat;lon;timestamp;temperature;humidity
12384;DHT22;6256;63.808;20.336;2022-12-18T00:01:24;-7.60;99.90
12384;DHT22;6256;63.808;20.336;2022-12-18T00:03:51;-7.60;99.90
12384;DHT22;6256;63.808;20.336;2022-12-18T00:06:17;-7.60;99.90
12384;DHT22;6256;63.808;20.336;2022-12-18T00:08:44;-7.60;99.90
12384;DHT22;6256;63.808;20.336;2022-12-18T00:11:18;-7.60;99.90
12384;DHT22;6256;63.808;20.336;2022-12-18T00:13:45;-7.60;99.90
12384;DHT22;6256;63.808;20.336;2022-12-18T00:16:13;-7.50;99.90
12384;DHT22;6256;63.808;20.336;2022-12-18T00:18:40;-7.50;99.90
12384;DHT22;6256;63.808;20.336;2022-12-18T00:21:09;-7.50;99.90
12384;DHT22;6256;63.808;20.336;2022-12-18T00:23:36;-7.60;99.90
12384;DHT22;6256;63.808;20.336;2022-12-18T00:26:05;-7.50;99.90
12384;DHT22;6256;63.808;20.336;2022-12-18T00:28:31;-7.50;99.90
12384;DHT22;6256;63.808;20.336;2022-12-18T00:31:02;-7.40;99.90
12384;DHT22;6256;63.808;20.336;2022-12-18T00:33:28;-7.40;99.90
12384;DHT22;6256;63.808;20.336;2022-12-18T00:35:54;-7.30;99.90
12384;DHT22;6256;63.808;20.336;2022-12-18T00:38:19;-7.30;99.90
12384;DHT22;6256;63.808;20.336;2022-12-18T00:40:45;-7.40;99.90
12384;DHT22;6256;63.808;20.336;2022-12-18T00:43:11;-7.30;99.90
12384;DHT22;6256;63.808;20.336;2022-12-18T00:45:36;-7.30;99.90
12384;DHT22;6256;63.808;20.336;2022-12-18T00:48:02;-7.30;99.90
12384;DHT22;6256;63.808;20.336;2022-12-18T00:50:28;-7.20;99.90
12384;DHT22;6256;63.808;20.336;2022-12-18T00:52:53;-7.20;99.90
12384;DHT22;6256;63.808;20.336;2022-12-18T00:55:19;-7.20;99.90
12384;DHT22;6256;63.808;20.336;2022-12-18T00:57:45;-7.10;99.90
12384;DHT22;6256;63.808;20.336;2022-12-18T01:00:13;-7.10;99.90
12384;DHT22;6256;63.808;20.336;2022-12-18T01:02:40;-7.10;99.90
12384;DHT22;6256;63.808;20.336;2022-12-18T01:05:06;-7.00;99.90
12384;DHT22;6256;63.808;20.336;2022-12-18T01:07:32;-7.00;99.90
12384;DHT22;6256;63.808;20.336;2022-12-18T01:09:58;-7.00;99.90
12384;DHT22;6256;63.808;20.336;2022-12-18T01:12:24;-7.00;99.90
12384;DHT22;6256;63.808;20.336;2022-12-18T01:14:50;-7.00;99.90
12384;DHT22;6256;63.808;20.336;2022-12-18T01:17:16;-7.00;99.90
12384;DHT22;6256;63.808;20.336;2022-12-18T01:19:41;-7.00;99.90
12384;DHT22;6256;63.808;20.336;2022-12-18T01:22:07;-7.10;99.90
12384;DHT22;6256;63.808;20.336;2022-12-18T01:24:33;-7.20;99.90
12384;DHT22;6256;63.808;20.336;2022-12-18T01:26:58;-7.20;99.90
12384;DHT22;6256;63.808;20.336;2022-12-18T01:29:24;-7.10;99.90
12384;DHT22;6256;63.808;20.336;2022-12-18T01:31:49;-7.10;99.90
12384;DHT22;6256;63.808;20.336;2022-12-18T01:34:15;-7.00;99.90
12384;DHT22;6256;63.808;20.336;2022-12-18T01:36:41;-7.00;99.90
12384;DHT22;6256;63.808;20.336;2022-12-18T01:39:11;-7.00;99.90
12384;DHT22;6256;63.808;20.336;2022-12-18T01:41:37;-7.00;99.90
12384;DHT22;6256;63.808;20.336;2022-12-18T01:47:23;-6.90;99.90
12384;DHT22;6256;63.808;20.336;2022-12-18T01:49:51;-6.90;99.90
12384;DHT22;6256;63.808;20.336;2022-12-18T01:52:17;-6.80;99.90
12384;DHT22;6256;63.808;20.336;2022-12-18T01:54:44;-6.80;99.90
12384;DHT22;6256;63.808;20.336;2022-12-18T01:57:13;-6.80;99.90
12384;DHT22;6256;63.808;20.336;2022-12-18T01:59:41;-6.80;99.90
12384;DHT22;6256;63.808;20.336;2022-12-18T02:02:08;-6.70;99.90
12384;DHT22;6256;63.808;20.336;2022-12-18T02:04:34;-6.70;99.90
12384;DHT22;6256;63.808;20.336;2022-12-18T02:09:35;-6.60;99.90
12384;DHT22;6256;63.808;20.336;2022-12-18T02:17:35;-6.50;99.90
12384;DHT22;6256;63.808;20.336;2022-12-18T02:20:34;-6.40;99.90
12384;DHT22;6256;63.808;20.336;2022-12-18T02:26:11;-6.40;99.90
12384;DHT22;6256;63.808;20.336;2022-12-18T02:28:42;-6.40;99.90
12384;DHT22;6256;63.808;20.336;2022-12-18T02:31:14;-6.30;99.90
12384;DHT22;6256;63.808;20.336;2022-12-18T02:33:43;-6.40;99.90
12384;DHT22;6256;63.808;20.336;2022-12-18T02:36:11;-6.40;99.90
12384;DHT22;6256;63.808;20.336;2022-12-18T02:38:38;-6.40;99.90
12384;DHT22;6256;63.808;20.336;2022-12-18T02:41:05;-6.30;99.90
12384;DHT22;6256;63.808;20.336;2022-12-18T02:43:31;-6.30;99.90
12384;DHT22;6256;63.808;20.336;2022-12-18T02:45:59;-6.30;99.90
12384;DHT22;6256;63.808;20.336;2022-12-18T02:48:32;-6.30;99.90
12384;DHT22;6256;63.808;20.336;2022-12-18T02:51:14;-6.30;99.90
12384;DHT22;6256;63.808;20.336;2022-12-18T02:53:48;-6.20;99.90
12384;DHT22;6256;63.808;20.336;2022-12-18T02:56:24;-6.20;99.90
12384;DHT22;6256;63.808;20.336;2022-12-18T02:58:59;-6.20;99.90
12384;DHT22;6256;63.808;20.336;2022-12-18T03:04:16;-6.20;99.90
12384;DHT22;6256;63.808;20.336;2022-12-18T03:06:54;-6.20;99.90
12384;DHT22;6256;63.808;20.336;2022-12-18T03:09:36;-6.20;99.90
12384;DHT22;6256;63.808;20.336;2022-12-18T03:12:30;-6.10;99.90
12384;DHT22;6256;63.808;20.336;2022-12-18T03:15:17;-6.10;99.90
12384;DHT22;6256;63.808;20.336;2022-12-18T03:17:52;-6.10;99.90
12384;DHT22;6256;63.808;20.336;2022-12-18T03:20:22;-6.00;99.90
12384;DHT22;6256;63.808;20.336;2022-12-18T03:22:52;-6.10;99.90
12384;DHT22;6256;63.808;20.336;2022-12-18T03:25:19;-6.10;99.90
12384;DHT22;6256;63.808;20.336;2022-12-18T03:27:49;-6.00;99.90
12384;DHT22;6256;63.808;20.336;2022-12-18T03:30:17;-6.00;99.90
12384;DHT22;6256;63.808;20.336;2022-12-18T03:35:15;-6.00;99.90
12384;DHT22;6256;63.808;20.336;2022-12-18T03:37:42;-6.00;99.90
12384;DHT22;6256;63.808;20.336;2022-12-18T03:40:08;-5.90;99.90
12384;DHT22;6256;63.808;20.336;2022-12-18T03:45:42;-5.80;99.90
12384;DHT22;6256;63.808;20.336;2022-12-18T03:48:25;-5.80;99.90
12384;DHT22;6256;63.808;20.336;2022-12-18T03:50:59;-5.80;99.90
12384;DHT22;6256;63.808;20.336;2022-12-18T03:55:52;-5.80;99.90
12384;DHT22;6256;63.808;20.336;2022-12-18T03:58:23;-5.80;99.90
12384;DHT22;6256;63.808;20.336;2022-12-18T04:00:52;-5.80;99.90
12384;DHT22;6256;63.808;20.336;2022-12-18T04:03:19;-5.80;99.90
12384;DHT22;6256;63.808;20.336;2022-12-18T04:05:46;-5.80;99.90
12384;DHT22;6256;63.808;20.336;2022-12-18T04:08:13;-5.80;99.90
12384;DHT22;6256;63.808;20.336;2022-12-18T04:10:39;-5.80;99.90
12384;DHT22;6256;63.808;20.336;2022-12-18T04:13:05;-5.80;99.90
12384;DHT22;6256;63.808;20.336;2022-12-18T04:15:34;-5.70;99.90
12384;DHT22;6256;63.808;20.336;2022-12-18T04:18:00;-5.70;99.90
12384;DHT22;6256;63.808;20.336;2022-12-18T04:20:27;-5.70;99.90
12384;DHT22;6256;63.808;20.336;2022-12-18T04:22:52;-5.60;99.90
12384;DHT22;6256;63.808;20.336;2022-12-18T04:25:18;-5.70;99.90
12384;DHT22;6256;63.808;20.336;2022-12-18T04:27:44;-5.60;99.90
12384;DHT22;6256;63.808;20.336;2022-12-18T04:30:10;-5.60;99.90
12384;DHT22;6256;63.808;20.336;2022-12-18T04:32:35;-5.60;99.90
12384;DHT22;6256;63.808;20.336;2022-12-18T04:35:01;-5.60;99.90
12384;DHT22;6256;63.808;20.336;2022-12-18T04:37:29;-5.60;99.90
12384;DHT22;6256;63.808;20.336;2022-12-18T04:39:55;-5.60;99.90
12384;DHT22;6256;63.808;20.336;2022-12-18T04:42:21;-5.60;99.90
12384;DHT22;6256;63.808;20.336;2022-12-18T04:44:46;-5.50;99.90
12384;DHT22;6256;63.808;20.336;2022-12-18T04:47:12;-5.60;99.90
12384;DHT22;6256;63.808;20.336;2022-12-18T04:49:38;-5.60;99.90
12384;DHT22;6256;63.808;20.336;2022-12-18T04:52:03;-5.50;99.90
12384;DHT22;6256;63.808;20.336;2022-12-18T04:54:29;-5.60;99.90
12384;DHT22;6256;63.808;20.336;2022-12-18T04:56:55;-5.50;99.90
12384;DHT22;6256;63.808;20.336;2022-12-18T04:59:20;-5.50;99.90
12384;DHT22;6256;63.808;20.336;2022-12-18T05:01:46;-5.50;99.90
12384;DHT22;6256;63.808;20.336;2022-12-18T05:04:12;-5.50;99.90
12384;DHT22;6256;63.808;20.336;2022-12-18T05:06:37;-5.50;99.90
12384;DHT22;6256;63.808;20.336;2022-12-18T05:09:03;-5.50;99.90
12384;DHT22;6256;63.808;20.336;2022-12-18T05:11:29;-5.50;99.90
12384;DHT22;6256;63.808;20.336;2022-12-18T05:13:54;-5.50;99.90
12384;DHT22;6256;63.808;20.336;2022-12-18T05:16:20;-5.40;99.90
12384;DHT22;6256;63.808;20.336;2022-12-18T05:18:46;-5.40;99.90
12384;DHT22;6256;63.808;20.336;2022-12-18T05:21:11;-5.40;99.90
12384;DHT22;6256;63.808;20.336;2022-12-18T05:23:37;-5.40;99.90
12384;DHT22;6256;63.808;20.336;2022-12-18T05:26:05;-5.40;99.90
12384;DHT22;6256;63.808;20.336;2022-12-18T05:28:33;-5.40;99.90
12384;DHT22;6256;63.808;20.336;2022-12-18T05:31:00;-5.40;99.90
12384;DHT22;6256;63.808;20.336;2022-12-18T05:33:30;-5.40;99.90
12384;DHT22;6256;63.808;20.336;2022-12-18T05:35:58;-5.30;99.90
12384;DHT22;6256;63.808;20.336;2022-12-18T05:38:25;-5.30;99.90
12384;DHT22;6256;63.808;20.336;2022-12-18T05:40:52;-5.30;99.90
12384;DHT22;6256;63.808;20.336;2022-12-18T05:43:22;-5.30;99.90
12384;DHT22;6256;63.808;20.336;2022-12-18T05:45:49;-5.30;99.90
12384;DHT22;6256;63.808;20.336;2022-12-18T05:48:15;-5.30;99.90
12384;DHT22;6256;63.808;20.336;2022-12-18T05:50:43;-5.20;99.90
12384;DHT22;6256;63.808;20.336;2022-12-18T05:53:11;-5.20;99.90
12384;DHT22;6256;63.808;20.336;2022-12-18T05:55:38;-5.20;99.90
12384;DHT22;6256;63.808;20.336;2022-12-18T05:58:05;-5.10;99.90
12384;DHT22;6256;63.808;20.336;2022-12-18T06:00:32;-5.10;99.90
12384;DHT22;6256;63.808;20.336;2022-12-18T06:03:00;-5.10;99.90
12384;DHT22;6256;63.808;20.336;2022-12-18T06:05:26;-5.10;99.90
12384;DHT22;6256;63.808;20.336;2022-12-18T06:07:52;-5.10;99.90
12384;DHT22;6256;63.808;20.336;2022-12-18T06:10:17;-5.10;99.90
12384;DHT22;6256;63.808;20.336;2022-12-18T06:12:43;-5.00;99.90
12384;DHT22;6256;63.808;20.336;2022-12-18T06:15:09;-5.00;99.90
12384;DHT22;6256;63.808;20.336;2022-12-18T06:17:35;-5.00;99.90
12384;DHT22;6256;63.808;20.336;2022-12-18T06:20:01;-5.00;99.90
12384;DHT22;6256;63.808;20.336;2022-12-18T06:22:27;-4.90;99.90
12384;DHT22;6256;63.808;20.336;2022-12-18T06:24:52;-4.90;99.90
12384;DHT22;6256;63.808;20.336;2022-12-18T06:27:18;-4.90;99.90
12384;DHT22;6256;63.808;20.336;2022-12-18T06:29:44;-4.80;99.90
12384;DHT22;6256;63.808;20.336;2022-12-18T06:32:11;-4.80;99.90
12384;DHT22;6256;63.808;20.336;2022-12-18T06:34:39;-4.80;99.90
12384;DHT22;6256;63.808;20.336;2022-12-18T06:37:05;-4.80;99.90
12384;DHT22;6256;63.808;20.336;2022-12-18T06:39:31;-4.70;99.90
12384;DHT22;6256;63.808;20.336;2022-12-18T06:41:56;-4.70;99.90
12384;DHT22;6256;63.808;20.336;2022-12-18T06:44:22;-4.70;99.90
12384;DHT22;6256;63.808;20.336;2022-12-18T06:46:48;-4.70;99.90
12384;DHT22;6256;63.808;20.336;2022-12-18T06:49:14;-4.70;99.90
12384;DHT22;6256;63.808;20.336;2022-12-18T06:51:41;-4.70;99.90
12384;DHT22;6256;63.808;20.336;2022-12-18T06:54:07;-4.70;99.90
12384;DHT22;6256;63.808;20.336;2022-12-18T06:56:33;-4.60;99.90
12384;DHT22;6256;63.808;20.336;2022-12-18T06:58:58;-4.60;99.90
12384;DHT22;6256;63.808;20.336;2022-12-18T07:01:24;-4.60;99.90
12384;DHT22;6256;63.808;20.336;2022-12-18T07:03:54;-4.50;99.90
12384;DHT22;6256;63.808;20.336;2022-12-18T07:06:22;-4.50;99.90
12384;DHT22;6256;63.808;20.336;2022-12-18T07:08:49;-4.50;99.90
12384;DHT22;6256;63.808;20.336;2022-12-18T07:11:15;-4.50;99.90
12384;DHT22;6256;63.808;20.336;2022-12-18T07:13:41;-4.50;99.90
12384;DHT22;6256;63.808;20.336;2022-12-18T07:16:10;-4.50;99.90
12384;DHT22;6256;63.808;20.336;2022-12-18T07:18:36;-4.50;99.90
12384;DHT22;6256;63.808;20.336;2022-12-18T07:21:06;-4.60;99.90
12384;DHT22;6256;63.808;20.336;2022-12-18T07:23:33;-4.60;99.90
12384;DHT22;6256;63.808;20.336;2022-12-18T07:26:11;-4.60;99.90
12384;DHT22;6256;63.808;20.336;2022-12-18T07:28:38;-4.60;99.90
12384;DHT22;6256;63.808;20.336;2022-12-18T07:31:09;-4.60;99.90
12384;DHT22;6256;63.808;20.336;2022-12-18T07:33:35;-4.60;99.90
12384;DHT22;6256;63.808;20.336;2022-12-18T07:36:05;-4.60;99.90
12384;DHT22;6256;63.808;20.336;2022-12-18T07:38:33;-4.50;99.90
12384;DHT22;6256;63.808;20.336;2022-12-18T07:41:12;-4.50;99.90
12384;DHT22;6256;63.808;20.336;2022-12-18T07:43:39;-4.40;99.90
12384;DHT22;6256;63.808;20.336;2022-12-18T07:46:06;-4.40;99.90
12384;DHT22;6256;63.808;20.336;2022-12-18T07:48:32;-4.40;99.90
12384;DHT22;6256;63.808;20.336;2022-12-18T07:51:02;-4.40;99.90
12384;DHT22;6256;63.808;20.336;2022-12-18T07:53:29;-4.30;99.90
12384;DHT22;6256;63.808;20.336;2022-12-18T07:55:59;-4.30;99.90
12384;DHT22;6256;63.808;20.336;2022-12-18T07:58:26;-4.30;99.90
12384;DHT22;6256;63.808;20.336;2022-12-18T08:00:52;-4.20;99.90
12384;DHT22;6256;63.808;20.336;2022-12-18T08:03:18;-4.20;99.90
12384;DHT22;6256;63.808;20.336;2022-12-18T08:05:44;-4.20;99.90
12384;DHT22;6256;63.808;20.336;2022-12-18T08:08:10;-4.10;99.90
12384;DHT22;6256;63.808;20.336;2022-12-18T08:10:37;-4.10;99.90
12384;DHT22;6256;63.808;20.336;2022-12-18T08:13:03;-4.00;99.90
12384;DHT22;6256;63.808;20.336;2022-12-18T08:15:29;-4.00;99.90
12384;DHT22;6256;63.808;20.336;2022-12-18T08:17:57;-4.00;99.90
12384;DHT22;6256;63.808;20.336;2022-12-18T08:20:23;-3.90;99.90
12384;DHT22;6256;63.808;20.336;2022-12-18T08:22:49;-3.90;99.90
12384;DHT22;6256;63.808;20.336;2022-12-18T08:25:14;-3.90;99.90
12384;DHT22;6256;63.808;20.336;2022-12-18T08:27:40;-3.90;99.90
12384;DHT22;6256;63.808;20.336;2022-12-18T08:30:07;-3.80;99.90
12384;DHT22;6256;63.808;20.336;2022-12-18T08:32:32;-3.80;99.90
12384;DHT22;6256;63.808;20.336;2022-12-18T08:34:58;-3.80;99.90
12384;DHT22;6256;63.808;20.336;2022-12-18T08:37:24;-3.80;99.90
12384;DHT22;6256;63.808;20.336;2022-12-18T08:39:50;-3.80;99.90
12384;DHT22;6256;63.808;20.336;2022-12-18T08:42:16;-3.80;99.90
12384;DHT22;6256;63.808;20.336;2022-12-18T08:45:00;-3.80;99.90
12384;DHT22;6256;63.808;20.336;2022-12-18T08:47:26;-3.70;99.90
12384;DHT22;6256;63.808;20.336;2022-12-18T08:49:51;-3.70;99.90
12384;DHT22;6256;63.808;20.336;2022-12-18T08:52:17;-3.70;99.90
12384;DHT22;6256;63.808;20.336;2022-12-18T08:54:43;-3.60;99.90
12384;DHT22;6256;63.808;20.336;2022-12-18T08:57:09;-3.60;99.90
12384;DHT22;6256;63.808;20.336;2022-12-18T08:59:34;-3.60;99.90
12384;DHT22;6256;63.808;20.336;2022-12-18T09:02:00;-3.60;99.90
12384;DHT22;6256;63.808;20.336;2022-12-18T09:04:26;-3.50;99.90
12384;DHT22;6256;63.808;20.336;2022-12-18T09:06:56;-3.50;99.90
12384;DHT22;6256;63.808;20.336;2022-12-18T09:09:22;-3.50;99.90
12384;DHT22;6256;63.808;20.336;2022-12-18T09:11:48;-3.40;99.90
12384;DHT22;6256;63.808;20.336;2022-12-18T09:14:13;-3.40;99.90
12384;DHT22;6256;63.808;20.336;2022-12-18T09:16:39;-3.30;99.90
12384;DHT22;6256;63.808;20.336;2022-12-18T09:19:05;-3.30;99.90
12384;DHT22;6256;63.808;20.336;2022-12-18T09:21:33;-3.30;99.90
12384;DHT22;6256;63.808;20.336;2022-12-18T09:23:59;-3.30;99.90
12384;DHT22;6256;63.808;20.336;2022-12-18T09:26:26;-3.30;99.90
12384;DHT22;6256;63.808;20.336;2022-12-18T09:28:51;-3.20;99.90
12384;DHT22;6256;63.808;20.336;2022-12-18T09:31:20;-3.20;99.90
12384;DHT22;6256;63.808;20.336;2022-12-18T09:33:46;-3.30;99.90
12384;DHT22;6256;63.808;20.336;2022-12-18T09:36:14;-3.30;99.90
12384;DHT22;6256;63.808;20.336;2022-12-18T09:38:40;-3.30;99.90
12384;DHT22;6256;63.808;20.336;2022-12-18T09:41:33;-3.30;99.90
12384;DHT22;6256;63.808;20.336;2022-12-18T09:49:29;-3.20;99.90
12384;DHT22;6256;63.808;20.336;2022-12-18T09:54:59;-3.00;99.90
12384;DHT22;6256;63.808;20.336;2022-12-18T09:57:25;-3.00;99.90
12384;DHT22;6256;63.808;20.336;2022-12-18T10:00:18;-2.90;99.90
12384;DHT22;6256;63.808;20.336;2022-12-18T10:02:45;-2.90;99.90
12384;DHT22;6256;63.808;20.336;2022-12-18T10:05:15;-2.90;99.90
12384;DHT22;6256;63.808;20.336;2022-12-18T10:08:04;-2.90;99.90
12384;DHT22;6256;63.808;20.336;2022-12-18T10:10:45;-2.90;99.90
12384;DHT22;6256;63.808;20.336;2022-12-18T10:15:52;-2.80;99.90
12384;DHT22;6256;63.808;20.336;2022-12-18T10:21:10;-2.70;99.90
12384;DHT22;6256;63.808;20.336;2022-12-18T10:23:56;-2.60;99.90
12384;DHT22;6256;63.808;20.336;2022-12-18T10:26:24;-2.50;99.90
12384;DHT22;6256;63.808;20.336;2022-12-18T10:28:51;-2.50;99.90
12384;DHT22;6256;63.808;20.336;2022-12-18T10:31:21;-2.50;99.90
12384;DHT22;6256;63.808;20.336;2022-12-18T10:33:47;-2.50;99.90
12384;DHT22;6256;63.808;20.336;2022-12-18T10:36:13;-2.50;99.90
12384;DHT22;6256;63.808;20.336;2022-12-18T10:38:39;-2.50;99.90
12384;DHT22;6256;63.808;20.336;2022-12-18T10:41:25;-2.50;99.90
12384;DHT22;6256;63.808;20.336;2022-12-18T10:44:19;-2.50;99.90
12384;DHT22;6256;63.808;20.336;2022-12-18T10:46:48;-2.40;99.90
12384;DHT22;6256;63.808;20.336;2022-12-18T10:49:32;-2.30;99.90
12384;DHT22;6256;63.808;20.336;2022-12-18T10:52:25;-2.30;99.90
12384;DHT22;6256;63.808;20.336;2022-12-18T10:55:05;-2.20;99.90
12384;DHT22;6256;63.808;20.336;2022-12-18T10:57:39;-2.20;99.90
12384;DHT22;6256;63.808;20.336;2022-12-18T11:02:50;-2.20;99.90
12384;DHT22;6256;63.808;20.336;2022-12-18T11:05:32;-2.20;99.90
12384;DHT22;6256;63.808;20.336;2022-12-18T11:07:59;-2.10;99.90
12384;DHT22;6256;63.808;20.336;2022-12-18T11:10:36;-2.10;99.90
12384;DHT22;6256;63.808;20.336;2022-12-18T11:13:17;-2.10;99.90
12384;DHT22;6256;63.808;20.336;2022-12-18T11:15:44;-2.00;99.90
12384;DHT22;6256;63.808;20.336;2022-12-18T11:20:54;-2.00;99.90
12384;DHT22;6256;63.808;20.336;2022-12-18T11:23:21;-1.90;99.90
12384;DHT22;6256;63.808;20.336;2022-12-18T11:25:58;-2.00;99.90
12384;DHT22;6256;63.808;20.336;2022-12-18T11:34:15;-2.10;99.90
12384;DHT22;6256;63.808;20.336;2022-12-18T11:36:42;-2.00;99.90
12384;DHT22;6256;63.808;20.336;2022-12-18T11:39:24;-2.00;99.90
12384;DHT22;6256;63.808;20.336;2022-12-18T11:41:59;-2.00;99.90
12384;DHT22;6256;63.808;20.336;2022-12-18T11:44:48;-2.00;99.90
12384;DHT22;6256;63.808;20.336;2022-12-18T11:47:51;-2.00;99.90
12384;DHT22;6256;63.808;20.336;2022-12-18T11:50:21;-2.00;99.90
12384;DHT22;6256;63.808;20.336;2022-12-18T11:52:49;-1.90;99.90
12384;DHT22;6256;63.808;20.336;2022-12-18T11:55:20;-1.90;99.90
12384;DHT22;6256;63.808;20.336;2022-12-18T11:58:00;-1.80;99.90
12384;DHT22;6256;63.808;20.336;2022-12-18T12:00:28;-1.70;99.90
12384;DHT22;6256;63.808;20.336;2022-12-18T12:03:20;-1.70;99.90
12384;DHT22;6256;63.808;20.336;2022-12-18T12:06:20;-1.70;99.90
12384;DHT22;6256;63.808;20.336;2022-12-18T12:09:10;-1.70;99.90
12384;DHT22;6256;63.808;20.336;2022-12-18T12:17:45;-1.70;99.90
12384;DHT22;6256;63.808;20.336;2022-12-18T12:20:36;-1.60;99.90
12384;DHT22;6256;63.808;20.336;2022-12-18T12:23:17;-1.60;99.90
12384;DHT22;6256;63.808;20.336;2022-12-18T12:25:46;-1.60;99.90
12384;DHT22;6256;63.808;20.336;2022-12-18T12:28:41;-1.50;99.90
12384;DHT22;6256;63.808;20.336;2022-12-18T12:31:50;-1.40;99.90
12384;DHT22;6256;63.808;20.336;2022-12-18T12:34:18;-1.40;99.90
12384;DHT22;6256;63.808;20.336;2022-12-18T12:36:59;-1.30;99.90
12384;DHT22;6256;63.808;20.336;2022-12-18T12:39:31;-1.20;99.90
12384;DHT22;6256;63.808;20.336;2022-12-18T12:41:59;-1.20;99.90
12384;DHT22;6256;63.808;20.336;2022-12-18T12:44:50;-1.10;99.90
12384;DHT22;6256;63.808;20.336;2022-12-18T12:47:20;-1.00;99.90
12384;DHT22;6256;63.808;20.336;2022-12-18T12:49:47;-1.00;99.90
12384;DHT22;6256;63.808;20.336;2022-12-18T12:52:47;-0.90;99.90
12384;DHT22;6256;63.808;20.336;2022-12-18T12:55:26;-0.90;99.90
12384;DHT22;6256;63.808;20.336;2022-12-18T12:58:06;-0.90;99.90
12384;DHT22;6256;63.808;20.336;2022-12-18T13:00:54;-0.80;99.90
12384;DHT22;6256;63.808;20.336;2022-12-18T13:03:45;-0.70;99.90
12384;DHT22;6256;63.808;20.336;2022-12-18T13:09:14;-0.60;99.90
12384;DHT22;6256;63.808;20.336;2022-12-18T13:11:44;-0.60;99.90
12384;DHT22;6256;63.808;20.336;2022-12-18T13:14:38;-0.60;99.90
12384;DHT22;6256;63.808;20.336;2022-12-18T13:20:01;-0.50;99.90
12384;DHT22;6256;63.808;20.336;2022-12-18T13:22:37;-0.40;99.90
12384;DHT22;6256;63.808;20.336;2022-12-18T13:28:04;-0.40;99.90
12384;DHT22;6256;63.808;20.336;2022-12-18T13:46:24;-0.10;99.90
12384;DHT22;6256;63.808;20.336;2022-12-18T13:49:16;-0.10;99.90
12384;DHT22;6256;63.808;20.336;2022-12-18T13:51:48;-0.10;99.90
12384;DHT22;6256;63.808;20.336;2022-12-18T13:56:51;0.00;99.90
12384;DHT22;6256;63.808;20.336;2022-12-18T13:59:21;0.00;99.90
12384;DHT22;6256;63.808;20.336;2022-12-18T14:01:58;0.00;99.90
12384;DHT22;6256;63.808;20.336;2022-12-18T14:04:33;-0.10;99.90
12384;DHT22;6256;63.808;20.336;2022-12-18T14:07:05;-0.10;99.90
12384;DHT22;6256;63.808;20.336;2022-12-18T14:09:37;-0.10;99.90
12384;DHT22;6256;63.808;20.336;2022-12-18T14:12:05;0.00;99.90
12384;DHT22;6256;63.808;20.336;2022-12-18T14:14:51;-0.10;99.90
12384;DHT22;6256;63.808;20.336;2022-12-18T14:17:18;-0.10;99.90
12384;DHT22;6256;63.808;20.336;2022-12-18T14:19:49;-0.10;99.90
12384;DHT22;6256;63.808;20.336;2022-12-18T14:22:21;-0.10;99.90
12384;DHT22;6256;63.808;20.336;2022-12-18T14:25:14;0.00;99.90
12384;DHT22;6256;63.808;20.336;2022-12-18T14:27:52;0.00;99.90
12384;DHT22;6256;63.808;20.336;2022-12-18T14:30:29;0.00;99.90
12384;DHT22;6256;63.808;20.336;2022-12-18T14:35:28;0.00;99.90
12384;DHT22;6256;63.808;20.336;2022-12-18T14:38:19;0.10;99.90
12384;DHT22;6256;63.808;20.336;2022-12-18T14:40:46;0.00;99.90
12384;DHT22;6256;63.808;20.336;2022-12-18T14:43:12;0.00;99.90
12384;DHT22;6256;63.808;20.336;2022-12-18T14:45:39;0.00;99.90
12384;DHT22;6256;63.808;20.336;2022-12-18T14:51:16;0.00;99.90
12384;DHT22;6256;63.808;20.336;2022-12-18T14:53:48;0.00;99.90
12384;DHT22;6256;63.808;20.336;2022-12-18T14:56:35;0.10;99.90
12384;DHT22;6256;63.808;20.336;2022-12-18T14:59:06;0.00;99.90
12384;DHT22;6256;63.808;20.336;2022-12-18T15:01:45;0.00;99.90
12384;DHT22;6256;63.808;20.336;2022-12-18T15:07:07;0.00;99.90
12384;DHT22;6256;63.808;20.336;2022-12-18T15:09:34;0.00;99.90
12384;DHT22;6256;63.808;20.336;2022-12-18T15:12:01;0.00;99.90
12384;DHT22;6256;63.808;20.336;2022-12-18T15:16:55;0.00;99.90
12384;DHT22;6256;63.808;20.336;2022-12-18T15:19:35;-0.10;99.90
12384;DHT22;6256;63.808;20.336;2022-12-18T15:22:02;-0.10;99.90
12384;DHT22;6256;63.808;20.336;2022-12-18T15:24:31;-0.10;99.90
12384;DHT22;6256;63.808;20.336;2022-12-18T15:26:58;-0.10;99.90
12384;DHT22;6256;63.808;20.336;2022-12-18T15:29:24;-0.10;99.90
12384;DHT22;6256;63.808;20.336;2022-12-18T15:32:19;-0.10;99.90
12384;DHT22;6256;63.808;20.336;2022-12-18T15:34:45;-0.20;99.90
12384;DHT22;6256;63.808;20.336;2022-12-18T15:37:11;-0.20;99.90
12384;DHT22;6256;63.808;20.336;2022-12-18T15:39:36;-0.30;99.90
12384;DHT22;6256;63.808;20.336;2022-12-18T15:42:02;-0.30;99.90
12384;DHT22;6256;63.808;20.336;2022-12-18T15:44:46;-0.40;99.90
12384;DHT22;6256;63.808;20.336;2022-12-18T15:47:12;-0.40;99.90
12384;DHT22;6256;63.808;20.336;2022-12-18T15:49:39;-0.40;99.90
12384;DHT22;6256;63.808;20.336;2022-12-18T15:52:05;-0.50;99.90
12384;DHT22;6256;63.808;20.336;2022-12-18T15:54:31;-0.50;99.90
12384;DHT22;6256;63.808;20.336;2022-12-18T15:57:15;-0.50;99.90
12384;DHT22;6256;63.808;20.336;2022-12-18T15:59:55;-0.50;99.90
12384;DHT22;6256;63.808;20.336;2022-12-18T16:02:24;-0.50;99.90
12384;DHT22;6256;63.808;20.336;2022-12-18T16:04:51;-0.50;99.90
12384;DHT22;6256;63.808;20.336;2022-12-18T16:07:18;-0.60;99.90
12384;DHT22;6256;63.808;20.336;2022-12-18T16:09:43;-0.70;99.90
12384;DHT22;6256;63.808;20.336;2022-12-18T16:12:36;-0.70;99.90
12384;DHT22;6256;63.808;20.336;2022-12-18T16:15:02;-0.80;99.90
12384;DHT22;6256;63.808;20.336;2022-12-18T16:17:28;-0.80;99.90
12384;DHT22;6256;63.808;20.336;2022-12-18T16:19:54;-0.80;99.90
12384;DHT22;6256;63.808;20.336;2022-12-18T16:22:25;-0.90;99.90
12384;DHT22;6256;63.808;20.336;2022-12-18T16:24:52;-1.00;99.90
12384;DHT22;6256;63.808;20.336;2022-12-18T16:27:19;-1.10;99.90
12384;DHT22;6256;63.808;20.336;2022-12-18T16:29:46;-1.10;99.90
12384;DHT22;6256;63.808;20.336;2022-12-18T16:32:14;-1.20;99.90
12384;DHT22;6256;63.808;20.336;2022-12-18T16:34:41;-1.30;99.90
12384;DHT22;6256;63.808;20.336;2022-12-18T16:37:09;-1.30;99.90
12384;DHT22;6256;63.808;20.336;2022-12-18T16:39:35;-1.40;99.90
12384;DHT22;6256;63.808;20.336;2022-12-18T16:42:17;-1.40;99.90
12384;DHT22;6256;63.808;20.336;2022-12-18T16:44:45;-1.50;99.90
12384;DHT22;6256;63.808;20.336;2022-12-18T16:47:12;-1.50;99.90
12384;DHT22;6256;63.808;20.336;2022-12-18T16:49:37;-1.40;99.90
12384;DHT22;6256;63.808;20.336;2022-12-18T16:52:05;-1.40;99.90
12384;DHT22;6256;63.808;20.336;2022-12-18T16:54:30;-1.40;99.90
12384;DHT22;6256;63.808;20.336;2022-12-18T16:56:58;-1.30;99.90
12384;DHT22;6256;63.808;20.336;2022-12-18T16:59:25;-1.30;99.90
12384;DHT22;6256;63.808;20.336;2022-12-18T17:01:51;-1.30;99.90
12384;DHT22;6256;63.808;20.336;2022-12-18T17:04:17;-1.30;99.90
12384;DHT22;6256;63.808;20.336;2022-12-18T17:06:44;-1.30;99.90
12384;DHT22;6256;63.808;20.336;2022-12-18T17:09:16;-1.30;99.90
12384;DHT22;6256;63.808;20.336;2022-12-18T17:11:42;-1.30;99.90
12384;DHT22;6256;63.808;20.336;2022-12-18T17:14:11;-1.40;99.90
12384;DHT22;6256;63.808;20.336;2022-12-18T17:16:37;-1.30;99.90
12384;DHT22;6256;63.808;20.336;2022-12-18T17:19:03;-1.30;99.90
12384;DHT22;6256;63.808;20.336;2022-12-18T17:21:29;-1.40;99.90
12384;DHT22;6256;63.808;20.336;2022-12-18T17:23:55;-1.50;99.90
12384;DHT22;6256;63.808;20.336;2022-12-18T17:26:23;-1.60;99.90